createdAt,value
2019-05-06T00:01:34.004Z,90.90
2019-05-06T00:04:04.845Z,91.20
2019-05-06T00:06:34.605Z,91.40
2019-05-06T00:09:05.226Z,91.90
2019-05-06T00:11:34.611Z,92.70
2019-05-06T00:14:04.210Z,92.50
2019-05-06T00:16:34.754Z,92.70
2019-05-06T00:19:04.765Z,93.10
2019-05-06T00:21:35.623Z,93.20
2019-05-06T00:24:04.137Z,93.40
2019-05-06T00:26:37.118Z,93.50
2019-05-06T00:29:07.471Z,93.50
2019-05-06T00:31:36.287Z,93.70
2019-05-06T00:34:04.994Z,93.70
2019-05-06T00:36:34.494Z,93.80
2019-05-06T00:39:12.525Z,94.00
2019-05-06T00:41:43.372Z,94.10
2019-05-06T00:44:11.374Z,94.30
2019-05-06T00:46:39.920Z,94.40
2019-05-06T00:49:08.442Z,94.60
2019-05-06T00:51:36.913Z,94.80
2019-05-06T00:54:24.834Z,95.00
2019-05-06T00:56:54.117Z,95.40
2019-05-06T00:59:23.816Z,95.30
2019-05-06T01:01:53.899Z,95.60
2019-05-06T01:04:24.368Z,96.00
2019-05-06T01:06:54.479Z,96.20
2019-05-06T01:09:24.777Z,95.90
2019-05-06T01:11:55.449Z,96.00
2019-05-06T01:14:40.777Z,96.10
2019-05-06T01:17:09.313Z,96.20
2019-05-06T01:19:37.767Z,96.20
2019-05-06T01:22:06.220Z,96.20
2019-05-06T01:24:34.690Z,96.20
2019-05-06T01:27:03.994Z,96.30
2019-05-06T01:29:34.633Z,96.90
2019-05-06T01:32:03.681Z,96.40
2019-05-06T01:34:33.970Z,96.60
2019-05-06T01:37:03.664Z,96.80
2019-05-06T01:39:50.453Z,96.80
2019-05-06T01:42:29.358Z,96.80
2019-05-06T01:44:57.911Z,96.80
2019-05-06T01:47:26.417Z,96.70
2019-05-06T01:49:54.868Z,96.80
2019-05-06T01:52:24.030Z,97.10
2019-05-06T01:54:54.176Z,97.20
2019-05-06T01:57:24.421Z,97.30
2019-05-06T01:59:53.906Z,97.60
2019-05-06T02:02:23.889Z,97.60
2019-05-06T02:04:54.106Z,97.60
2019-05-06T02:07:24.182Z,97.70
2019-05-06T02:09:54.296Z,97.90
2019-05-06T02:12:24.629Z,98.00
2019-05-06T02:14:54.359Z,98.00
2019-05-06T02:17:23.953Z,98.20
2019-05-06T02:19:54.670Z,98.30
2019-05-06T02:22:27.972Z,98.50
2019-05-06T02:24:58.053Z,98.70
2019-05-06T02:27:26.516Z,98.60
2019-05-06T02:29:56.718Z,99.00
2019-05-06T02:32:31.546Z,99.30
2019-05-06T02:35:14.955Z,99.40
2019-05-06T02:37:46.386Z,99.60
2019-05-06T02:40:32.962Z,99.60
2019-05-06T02:43:02.932Z,99.80
2019-05-06T02:45:33.201Z,99.90
2019-05-06T02:48:13.632Z,99.90
2019-05-06T02:50:45.513Z,99.90
2019-05-06T02:53:15.674Z,99.90
2019-05-06T02:55:44.236Z,99.90
2019-05-06T02:58:14.816Z,99.90
2019-05-06T03:00:43.283Z,99.90
2019-05-06T03:03:13.980Z,99.90
2019-05-06T03:05:43.834Z,99.90
2019-05-06T03:08:13.411Z,99.90
2019-05-06T03:10:44.202Z,99.90
2019-05-06T03:13:14.242Z,99.90
2019-05-06T03:15:43.341Z,99.90
2019-05-06T03:18:14.810Z,99.90
2019-05-06T03:20:58.081Z,99.90
2019-05-06T03:23:34.445Z,99.90
2019-05-06T03:26:03.811Z,99.90
2019-05-06T03:28:33.398Z,99.90
2019-05-06T03:31:06.697Z,99.90
2019-05-06T03:33:50.537Z,99.90
2019-05-06T03:36:15.300Z,99.90
2019-05-06T03:38:33.426Z,99.90
2019-05-06T03:41:03.111Z,99.90
2019-05-06T03:43:33.756Z,99.90
2019-05-06T03:46:14.266Z,99.90
2019-05-06T03:48:44.571Z,99.90
2019-05-06T03:51:13.674Z,99.90
2019-05-06T03:53:43.602Z,99.90
2019-05-06T03:56:16.842Z,99.90
2019-05-06T03:58:43.841Z,99.90
2019-05-06T04:01:13.417Z,99.90
2019-05-06T04:03:47.530Z,99.90
2019-05-06T04:06:13.817Z,99.90
2019-05-06T04:08:44.079Z,99.90
2019-05-06T04:11:15.505Z,99.90
2019-05-06T04:13:45.129Z,99.90
2019-05-06T04:16:15.408Z,99.90
2019-05-06T04:18:53.933Z,99.90
2019-05-06T04:21:24.191Z,99.90
2019-05-06T04:23:54.748Z,99.90
2019-05-06T04:26:25.343Z,99.90
2019-05-06T04:28:54.293Z,99.90
2019-05-06T04:31:22.983Z,99.90
2019-05-06T04:34:08.338Z,99.90
2019-05-06T04:36:23.716Z,99.60
2019-05-06T04:38:53.939Z,99.30
2019-05-06T04:41:26.522Z,99.10
2019-05-06T04:43:53.447Z,99.50
2019-05-06T04:46:23.646Z,99.70
2019-05-06T04:48:53.853Z,99.70
2019-05-06T04:51:24.807Z,99.70
2019-05-06T04:53:53.917Z,99.50
2019-05-06T04:56:23.732Z,99.50
2019-05-06T04:58:53.907Z,99.40
2019-05-06T05:01:23.305Z,99.10
2019-05-06T05:03:53.852Z,98.70
2019-05-06T05:06:23.204Z,98.60
2019-05-06T05:08:53.264Z,98.20
2019-05-06T05:11:30.027Z,98.10
2019-05-06T05:14:02.587Z,98.00
2019-05-06T05:19:27.639Z,97.20
2019-05-06T05:21:57.798Z,97.10
2019-05-06T05:24:26.258Z,97.10
2019-05-06T05:26:54.734Z,97.00
2019-05-06T05:29:23.190Z,95.90
2019-05-06T05:31:53.031Z,95.50
2019-05-06T05:34:26.663Z,95.00
2019-05-06T05:36:52.687Z,94.90
2019-05-06T05:39:22.270Z,94.50
2019-05-06T05:41:52.287Z,94.50
2019-05-06T05:44:22.793Z,94.40
2019-05-06T05:46:52.315Z,94.20
2019-05-06T05:49:32.452Z,93.60
2019-05-06T05:52:03.216Z,92.90
2019-05-06T05:54:33.216Z,92.80
2019-05-06T05:57:02.359Z,92.50
2019-05-06T05:59:32.913Z,92.60
2019-05-06T06:02:03.756Z,91.80
2019-05-06T06:04:32.254Z,91.60
2019-05-06T06:07:02.683Z,91.50
2019-05-06T06:09:33.719Z,91.40
2019-05-06T06:12:04.514Z,91.40
2019-05-06T06:14:47.100Z,91.70
2019-05-06T06:17:15.519Z,91.90
2019-05-06T06:19:54.790Z,92.00
2019-05-06T06:22:25.418Z,92.10
2019-05-06T06:24:53.942Z,92.40
2019-05-06T06:27:22.737Z,92.40
2019-05-06T06:29:52.739Z,93.00
2019-05-06T06:32:23.601Z,93.40
2019-05-06T06:35:10.794Z,93.40
2019-05-06T06:37:37.739Z,93.70
2019-05-06T06:40:09.235Z,93.50
2019-05-06T06:42:37.726Z,93.50
2019-05-06T06:45:07.474Z,93.50
2019-05-06T06:47:36.351Z,93.60
2019-05-06T06:50:05.641Z,93.50
2019-05-06T06:52:34.103Z,93.20
2019-05-06T06:55:02.689Z,93.10
2019-05-06T06:57:42.515Z,92.70
2019-05-06T07:00:13.770Z,92.60
2019-05-06T07:02:52.473Z,91.80
2019-05-06T07:05:28.054Z,91.60
2019-05-06T07:07:53.189Z,91.20
2019-05-06T07:10:40.088Z,91.10
2019-05-06T07:13:08.898Z,90.70
2019-05-06T07:15:37.367Z,90.10
2019-05-06T07:18:05.814Z,86.90
2019-05-06T07:20:35.938Z,86.00
2019-05-06T07:23:22.196Z,85.50
2019-05-06T07:25:53.511Z,83.30
2019-05-06T07:28:22.800Z,81.50
2019-05-06T07:30:52.234Z,78.90
2019-05-06T07:33:22.877Z,79.40
2019-05-06T07:35:53.011Z,79.40
2019-05-06T07:38:23.141Z,78.00
2019-05-06T07:40:56.847Z,77.80
2019-05-06T07:43:33.936Z,74.40
2019-05-06T07:46:29.373Z,72.00
2019-05-06T07:48:57.824Z,67.70
2019-05-06T07:51:26.290Z,67.80
2019-05-06T07:53:54.748Z,68.30
2019-05-06T07:56:23.252Z,66.80
2019-05-06T07:58:53.415Z,65.90
2019-05-06T08:01:25.875Z,63.60
2019-05-06T08:03:53.253Z,64.20
2019-05-06T08:06:22.666Z,62.10
2019-05-06T08:08:53.627Z,61.40
2019-05-06T08:11:22.279Z,61.70
2019-05-06T08:13:52.763Z,61.70
2019-05-06T08:16:22.648Z,61.40
2019-05-06T08:18:52.499Z,60.40
2019-05-06T08:21:23.872Z,60.20
2019-05-06T08:23:53.568Z,59.50
2019-05-06T08:26:22.556Z,59.40
2019-05-06T08:28:52.688Z,59.10
2019-05-06T08:31:22.641Z,59.10
2019-05-06T08:33:52.384Z,59.10
2019-05-06T08:36:29.060Z,59.20
2019-05-06T08:38:58.887Z,59.80
2019-05-06T08:41:28.304Z,59.90
2019-05-06T08:43:57.286Z,59.80
2019-05-06T08:46:25.755Z,59.50
2019-05-06T08:48:54.309Z,59.60
2019-05-06T08:51:24.405Z,59.60
2019-05-06T08:53:54.853Z,58.50
2019-05-06T08:56:23.337Z,58.30
2019-05-06T08:58:52.774Z,58.40
2019-05-06T09:01:38.634Z,58.90
2019-05-06T09:04:12.503Z,58.30
2019-05-06T09:06:37.899Z,58.50
2019-05-06T09:09:08.477Z,58.50
2019-05-06T09:11:37.732Z,58.00
2019-05-06T09:14:09.635Z,58.60
2019-05-06T09:16:37.305Z,58.80
2019-05-06T09:19:05.835Z,58.30
2019-05-06T09:21:34.445Z,58.40
2019-05-06T09:24:03.247Z,58.50
2019-05-06T09:26:36.029Z,58.80
2019-05-06T09:29:06.430Z,57.50
2019-05-06T09:31:36.544Z,57.60
2019-05-06T09:34:13.016Z,57.60
2019-05-06T09:36:51.333Z,58.10
2019-05-06T09:39:12.979Z,57.60
2019-05-06T09:41:47.021Z,57.60
2019-05-06T09:44:12.467Z,57.60
2019-05-06T09:46:42.588Z,57.70
2019-05-06T09:49:13.250Z,57.70
2019-05-06T09:51:42.448Z,57.80
2019-05-06T09:54:15.876Z,57.70
2019-05-06T09:56:48.936Z,57.40
2019-05-06T09:59:17.723Z,55.10
2019-05-06T10:01:46.256Z,54.60
2019-05-06T10:04:15.091Z,54.30
2019-05-06T10:06:55.716Z,53.60
2019-05-06T10:09:15.782Z,53.40
2019-05-06T10:11:44.391Z,52.30
2019-05-06T10:14:13.054Z,52.40
2019-05-06T10:16:43.090Z,52.10
2019-05-06T10:19:13.229Z,52.00
2019-05-06T10:21:42.738Z,52.50
2019-05-06T10:24:11.663Z,52.50
2019-05-06T10:26:43.206Z,52.20
2019-05-06T10:29:19.296Z,51.40
2019-05-06T10:32:05.854Z,51.50
2019-05-06T10:34:34.353Z,51.60
2019-05-06T10:37:25.422Z,52.60
2019-05-06T10:39:59.920Z,52.60
2019-05-06T10:42:37.501Z,52.80
2019-05-06T10:45:14.502Z,53.60
2019-05-06T10:47:42.959Z,53.80
2019-05-06T10:50:12.552Z,53.60
2019-05-06T10:52:45.953Z,52.70
2019-05-06T10:55:14.417Z,52.70
2019-05-06T10:57:44.592Z,52.70
2019-05-06T11:00:13.709Z,52.70
2019-05-06T11:02:58.617Z,52.70
2019-05-06T11:05:27.072Z,52.70
2019-05-06T11:07:55.528Z,52.70
2019-05-06T11:10:28.589Z,52.60
2019-05-06T11:12:54.161Z,52.70
2019-05-06T11:15:23.266Z,52.60
2019-05-06T11:17:52.030Z,52.30
2019-05-06T11:20:20.495Z,52.60
2019-05-06T11:22:49.388Z,53.00
2019-05-06T11:25:18.070Z,51.60
2019-05-06T11:27:47.438Z,51.20
2019-05-06T11:30:18.107Z,50.60
2019-05-06T11:32:56.968Z,50.70
2019-05-06T11:35:27.180Z,50.70
2019-05-06T11:38:12.468Z,51.00
2019-05-06T11:40:42.083Z,50.80
2019-05-06T11:43:11.988Z,50.00
2019-05-06T11:45:42.616Z,49.60
2019-05-06T11:48:14.298Z,49.40
2019-05-06T11:50:43.024Z,48.80
2019-05-06T11:53:12.485Z,49.00
2019-05-06T11:55:41.332Z,48.90
2019-05-06T11:58:27.412Z,48.10
2019-05-06T12:00:57.171Z,46.70
2019-05-06T12:03:25.692Z,46.60
2019-05-06T12:05:54.151Z,45.60
2019-05-06T12:08:22.634Z,45.60
2019-05-06T12:10:52.030Z,45.30
2019-05-06T12:13:22.843Z,43.20
2019-05-06T12:15:52.527Z,43.40
2019-05-06T12:18:23.158Z,43.50
2019-05-06T12:20:52.775Z,43.30
2019-05-06T12:23:22.434Z,43.50
2019-05-06T12:25:52.912Z,42.90
2019-05-06T12:28:21.226Z,44.00
2019-05-06T12:30:52.253Z,45.20
2019-05-06T12:33:32.725Z,45.80
2019-05-06T12:36:05.001Z,45.90
2019-05-06T12:38:37.871Z,45.50
2019-05-06T12:41:06.344Z,44.40
2019-05-06T12:43:36.510Z,42.90
2019-05-06T12:46:06.780Z,41.40
2019-05-06T12:48:44.005Z,40.80
2019-05-06T12:51:12.724Z,39.60
2019-05-06T12:53:42.766Z,38.80
2019-05-06T12:56:12.406Z,38.20
2019-05-06T12:58:44.050Z,37.70
2019-05-06T13:01:13.698Z,37.30
2019-05-06T13:03:43.251Z,37.10
2019-05-06T13:06:12.994Z,36.20
2019-05-06T13:08:56.672Z,35.80
2019-05-06T13:11:19.173Z,36.00
2019-05-06T13:13:59.768Z,35.90
2019-05-06T13:16:17.994Z,35.50
2019-05-06T13:18:47.360Z,35.20
2019-05-06T13:21:16.735Z,35.30
2019-05-06T13:23:46.819Z,35.30
2019-05-06T13:26:15.387Z,34.90
2019-05-06T13:28:45.561Z,35.00
2019-05-06T13:31:20.814Z,35.10
2019-05-06T13:33:48.809Z,35.40
2019-05-06T13:36:17.525Z,35.60
2019-05-06T13:38:45.990Z,35.50
2019-05-06T13:41:14.456Z,35.40
2019-05-06T13:43:47.248Z,35.40
2019-05-06T13:46:29.338Z,35.70
2019-05-06T13:49:03.063Z,36.10
2019-05-06T13:51:36.419Z,36.20
2019-05-06T13:54:05.152Z,36.00
2019-05-06T13:56:33.697Z,36.40
2019-05-06T13:59:04.740Z,36.90
2019-05-06T14:01:44.044Z,37.10
2019-05-06T14:04:14.694Z,36.70
2019-05-06T14:06:43.475Z,36.00
2019-05-06T14:09:27.993Z,35.50
2019-05-06T14:11:42.501Z,35.10
2019-05-06T14:14:12.564Z,35.20
2019-05-06T14:16:42.613Z,35.10
2019-05-06T14:19:17.226Z,35.10
2019-05-06T14:21:45.673Z,34.90
2019-05-06T14:24:17.315Z,35.20
2019-05-06T14:26:46.350Z,35.50
2019-05-06T14:29:19.447Z,36.30
2019-05-06T14:31:52.643Z,36.30
2019-05-06T14:34:22.978Z,37.10
2019-05-06T14:37:10.791Z,37.50
2019-05-06T14:39:52.611Z,38.10
2019-05-06T14:42:13.626Z,39.30
2019-05-06T14:44:43.139Z,41.80
2019-05-06T14:47:23.282Z,43.70
2019-05-06T14:49:52.949Z,44.70
2019-05-06T14:52:22.660Z,45.60
2019-05-06T14:54:55.938Z,45.90
2019-05-06T14:57:25.517Z,46.00
2019-05-06T14:59:55.437Z,46.30
2019-05-06T15:02:43.564Z,46.20
2019-05-06T15:05:13.251Z,46.30
2019-05-06T15:07:42.175Z,46.30
2019-05-06T15:10:20.469Z,46.50
2019-05-06T15:12:42.677Z,46.40
2019-05-06T15:15:12.845Z,46.80
2019-05-06T15:17:43.110Z,46.70
2019-05-06T15:20:12.224Z,46.80
2019-05-06T15:22:42.057Z,46.50
2019-05-06T15:25:12.986Z,46.90
2019-05-06T15:27:42.632Z,47.30
2019-05-06T15:30:23.016Z,48.00
2019-05-06T15:32:52.944Z,47.90
2019-05-06T15:35:28.929Z,47.10
2019-05-06T15:37:59.063Z,47.00
2019-05-06T15:40:32.396Z,47.00
2019-05-06T15:42:57.676Z,47.00
2019-05-06T15:45:26.144Z,46.40
2019-05-06T15:47:59.745Z,46.60
2019-05-06T15:50:28.221Z,46.60
2019-05-06T15:52:56.679Z,46.90
2019-05-06T15:55:25.149Z,46.80
2019-05-06T15:57:53.614Z,46.90
2019-05-06T16:00:23.077Z,47.40
2019-05-06T16:02:53.055Z,47.70
2019-05-06T16:05:26.145Z,48.00
2019-05-06T16:07:52.935Z,48.00
2019-05-06T16:10:22.654Z,48.10
2019-05-06T16:12:53.454Z,48.10
2019-05-06T16:15:24.558Z,47.60
2019-05-06T16:17:53.106Z,47.40
2019-05-06T16:20:22.796Z,47.60
2019-05-06T16:22:52.976Z,47.80
2019-05-06T16:25:21.826Z,47.60
2019-05-06T16:27:54.524Z,47.10
2019-05-06T16:30:24.519Z,46.50
2019-05-06T16:32:52.773Z,46.00
2019-05-06T16:35:22.865Z,45.30
2019-05-06T16:37:51.748Z,45.10
2019-05-06T16:40:22.752Z,44.90
2019-05-06T16:42:53.417Z,45.20
2019-05-06T16:45:23.254Z,45.20
2019-05-06T16:47:52.429Z,45.30
2019-05-06T16:50:23.153Z,44.80
2019-05-06T16:52:52.571Z,44.70
2019-05-06T16:55:52.718Z,44.60
2019-05-06T16:58:24.566Z,44.70
2019-05-06T17:00:53.222Z,44.70
2019-05-06T17:03:23.664Z,44.70
2019-05-06T17:06:05.747Z,44.70
2019-05-06T17:08:36.474Z,45.00
2019-05-06T17:11:04.965Z,45.30
2019-05-06T17:13:37.428Z,45.50
2019-05-06T17:16:04.338Z,46.00
2019-05-06T17:18:33.136Z,46.20
2019-05-06T17:21:01.781Z,46.30
2019-05-06T17:23:32.382Z,46.70
2019-05-06T17:26:06.130Z,47.10
2019-05-06T17:28:42.517Z,47.40
2019-05-06T17:31:13.243Z,47.60
2019-05-06T17:33:46.681Z,47.70
2019-05-06T17:36:16.787Z,47.80
2019-05-06T17:38:49.773Z,48.30
2019-05-06T17:41:18.576Z,48.40
2019-05-06T17:43:47.108Z,48.60
2019-05-06T17:46:17.308Z,48.90
2019-05-06T17:48:50.253Z,49.00
2019-05-06T17:51:29.275Z,49.30
2019-05-06T17:53:59.366Z,49.50
2019-05-06T17:56:27.835Z,49.70
2019-05-06T17:58:56.697Z,50.00
2019-05-06T18:01:29.827Z,50.20
2019-05-06T18:03:58.286Z,50.50
2019-05-06T18:06:26.782Z,50.80
2019-05-06T18:08:55.271Z,50.90
2019-05-06T18:11:23.942Z,51.20
2019-05-06T18:13:52.415Z,51.50
2019-05-06T18:16:22.277Z,51.70
2019-05-06T18:18:52.291Z,51.70
2019-05-06T18:21:22.993Z,52.70
2019-05-06T18:23:52.255Z,53.00
2019-05-06T18:26:22.992Z,53.60
2019-05-06T18:28:52.713Z,53.90
2019-05-06T18:31:22.100Z,54.30
2019-05-06T18:33:52.754Z,54.40
2019-05-06T18:36:22.693Z,54.40
2019-05-06T18:38:52.548Z,54.20
2019-05-06T18:41:23.418Z,54.10
2019-05-06T18:43:53.466Z,53.90
2019-05-06T18:46:21.903Z,54.00
2019-05-06T18:48:52.438Z,54.00
2019-05-06T18:51:22.379Z,53.80
2019-05-06T18:53:52.408Z,53.70
2019-05-06T18:56:22.856Z,53.60
2019-05-06T18:58:52.992Z,53.70
2019-05-06T19:01:23.197Z,53.90
2019-05-06T19:03:53.340Z,53.90
2019-05-06T19:06:23.244Z,53.90
2019-05-06T19:08:56.563Z,54.00
2019-05-06T19:11:25.369Z,54.10
2019-05-06T19:13:53.942Z,54.20
2019-05-06T19:16:22.529Z,54.30
2019-05-06T19:18:52.226Z,54.50
2019-05-06T19:21:24.287Z,54.80
2019-05-06T19:23:52.335Z,54.90
2019-05-06T19:26:21.488Z,55.10
2019-05-06T19:28:52.560Z,55.20
2019-05-06T19:31:24.030Z,55.50
2019-05-06T19:33:52.709Z,55.60
2019-05-06T19:36:23.538Z,55.70
2019-05-06T19:38:51.654Z,55.90
2019-05-06T19:41:22.211Z,56.10
2019-05-06T19:43:52.258Z,56.50
2019-05-06T19:46:20.547Z,56.70
2019-05-06T19:48:49.084Z,56.80
2019-05-06T19:51:17.729Z,57.00
2019-05-06T19:53:46.216Z,57.20
2019-05-06T19:56:14.683Z,57.40
2019-05-06T19:58:43.140Z,57.60
2019-05-06T20:01:12.989Z,57.80
2019-05-06T20:03:41.515Z,58.00
2019-05-06T20:06:27.767Z,58.30
2019-05-06T20:08:57.871Z,58.50
2019-05-06T20:11:28.048Z,58.90
2019-05-06T20:13:56.525Z,59.10
2019-05-06T20:16:25.357Z,59.40
2019-05-06T20:18:53.807Z,59.40
2019-05-06T20:21:23.047Z,59.50
2019-05-06T20:23:52.580Z,59.70
2019-05-06T20:26:21.978Z,59.80
2019-05-06T20:28:52.588Z,60.20
2019-05-06T20:31:22.668Z,60.40
2019-05-06T20:33:52.850Z,60.70
2019-05-06T20:36:22.653Z,61.00
2019-05-06T20:38:51.449Z,61.40
2019-05-06T20:41:22.034Z,61.60
2019-05-06T20:43:50.163Z,62.10
2019-05-06T20:46:18.647Z,62.70
2019-05-06T20:48:47.118Z,62.70
2019-05-06T20:51:15.655Z,63.10
2019-05-06T20:53:44.106Z,63.40
2019-05-06T20:56:12.565Z,63.80
2019-05-06T20:58:42.001Z,64.30
2019-05-06T21:01:10.878Z,64.40
2019-05-06T21:03:39.337Z,64.60
2019-05-06T21:06:07.822Z,64.90
2019-05-06T21:08:36.287Z,65.30
2019-05-06T21:11:04.743Z,65.50
2019-05-06T21:13:35.579Z,65.50
2019-05-06T21:16:03.386Z,65.80
2019-05-06T21:18:32.568Z,66.00
2019-05-06T21:21:02.072Z,66.20
2019-05-06T21:23:32.101Z,66.30
2019-05-06T21:26:03.111Z,66.60
2019-05-06T21:28:31.263Z,66.90
2019-05-06T21:30:59.823Z,67.00
2019-05-06T21:33:28.270Z,67.40
2019-05-06T21:35:56.808Z,67.60
2019-05-06T21:38:25.337Z,68.00
2019-05-06T21:40:53.857Z,68.20
2019-05-06T21:43:22.814Z,68.50
2019-05-06T21:45:51.500Z,68.90
2019-05-06T21:48:22.106Z,69.30
2019-05-06T21:50:52.084Z,69.40
2019-05-06T21:53:22.900Z,69.40
2019-05-06T21:55:52.506Z,69.70
2019-05-06T21:58:22.983Z,70.50
2019-05-06T22:00:55.593Z,70.80
2019-05-06T22:03:24.168Z,71.10
2019-05-06T22:05:54.644Z,71.80
2019-05-06T22:08:23.739Z,72.20
2019-05-06T22:10:52.983Z,72.70
2019-05-06T22:13:21.952Z,73.20
2019-05-06T22:15:50.641Z,73.90
2019-05-06T22:18:19.095Z,74.50
2019-05-06T22:21:07.290Z,75.30
2019-05-06T22:23:49.077Z,75.90
2019-05-06T22:26:17.679Z,76.30
2019-05-06T22:28:46.209Z,76.80
2019-05-06T22:31:14.744Z,77.50
2019-05-06T22:33:43.207Z,78.30
2019-05-06T22:36:13.204Z,79.20
2019-05-06T22:38:44.217Z,79.40
2019-05-06T22:41:12.825Z,80.30
2019-05-06T22:43:42.402Z,81.00
2019-05-06T22:46:12.318Z,81.60
2019-05-06T22:48:43.163Z,82.30
2019-05-06T22:51:12.393Z,83.10
2019-05-06T22:53:42.458Z,83.90
2019-05-06T22:56:13.234Z,84.60
2019-05-06T22:58:42.746Z,85.10
2019-05-06T23:01:13.244Z,85.90
2019-05-06T23:03:43.034Z,86.30
2019-05-06T23:06:12.524Z,86.80
2019-05-06T23:08:43.235Z,87.20
2019-05-06T23:11:13.584Z,88.10
2019-05-06T23:13:41.882Z,88.60
2019-05-06T23:16:12.866Z,88.60
2019-05-06T23:18:42.895Z,88.60
2019-05-06T23:21:12.201Z,89.20
2019-05-06T23:23:43.517Z,89.20
2019-05-06T23:26:19.835Z,89.70
2019-05-06T23:28:48.658Z,89.90
2019-05-06T23:31:17.177Z,90.00
2019-05-06T23:33:45.995Z,90.10
2019-05-06T23:36:14.678Z,90.20
2019-05-06T23:39:19.580Z,90.40
2019-05-06T23:42:24.458Z,90.70
2019-05-06T23:45:29.423Z,90.60
2019-05-06T23:48:34.439Z,90.70
2019-05-06T23:51:39.327Z,90.80
2019-05-06T23:54:43.992Z,90.90
2019-05-06T23:57:11.378Z,91.00
2019-05-06T23:59:39.827Z,91.30
